createdAt,value
2022-10-19T00:00:35.231Z,216.63
2022-10-19T00:01:30.312Z,216.63
2022-10-19T00:02:25.701Z,218.36
2022-10-19T00:03:23.219Z,217.35
2022-10-19T00:04:16.177Z,218.50
2022-10-19T00:05:11.272Z,218.94
2022-10-19T00:06:06.514Z,219.09
2022-10-19T00:07:05.275Z,218.94
2022-10-19T00:08:00.324Z,219.53
2022-10-19T00:08:55.562Z,220.41
2022-10-19T00:09:51.492Z,219.97
2022-10-19T00:10:46.605Z,221.01
2022-10-19T00:11:41.938Z,221.60
2022-10-19T00:12:38.185Z,221.15
2022-10-19T00:13:33.354Z,220.26
2022-10-19T00:14:29.360Z,220.12
2022-10-19T00:15:24.514Z,220.86
2022-10-19T00:16:19.870Z,222.65
2022-10-19T00:17:15.508Z,222.20
2022-10-19T00:18:10.741Z,220.56
2022-10-19T00:19:06.545Z,221.60
2022-10-19T00:20:01.686Z,220.26
2022-10-19T00:20:57.128Z,221.45
2022-10-19T00:21:52.887Z,222.35
2022-10-19T00:22:48.034Z,221.60
2022-10-19T00:23:43.219Z,222.50
2022-10-19T00:24:39.667Z,221.15
2022-10-19T00:25:34.895Z,222.81
2022-10-19T00:26:30.734Z,223.11
2022-10-19T00:27:25.999Z,223.26
2022-10-19T00:28:21.193Z,225.10
2022-10-19T00:29:16.914Z,223.41
2022-10-19T00:30:12.092Z,224.95
2022-10-19T00:31:07.939Z,223.41
2022-10-19T00:32:03.076Z,223.41
2022-10-19T00:32:58.454Z,224.95
2022-10-19T00:33:54.182Z,224.33
2022-10-19T00:34:49.333Z,223.72
2022-10-19T00:35:44.568Z,223.57
2022-10-19T00:36:41.005Z,222.81
2022-10-19T00:37:36.230Z,222.96
2022-10-19T00:38:31.483Z,221.60
2022-10-19T00:39:27.275Z,221.01
2022-10-19T00:40:22.651Z,220.71
2022-10-19T00:41:18.542Z,222.50
2022-10-19T00:42:13.612Z,223.57
2022-10-19T00:43:09.093Z,223.72
2022-10-19T00:44:04.860Z,225.25
2022-10-19T00:45:00.084Z,226.81
2022-10-19T00:45:55.415Z,224.48
2022-10-19T00:46:51.654Z,224.48
2022-10-19T00:47:46.893Z,225.10
2022-10-19T00:48:42.725Z,224.95
2022-10-19T00:49:37.910Z,224.79
2022-10-19T00:50:33.400Z,223.72
2022-10-19T00:51:28.619Z,221.75
2022-10-19T00:52:23.703Z,223.57
2022-10-19T00:53:18.810Z,221.90
2022-10-19T00:54:13.813Z,222.20
2022-10-19T00:55:08.888Z,224.18
2022-10-19T00:56:03.928Z,223.11
2022-10-19T00:56:59.080Z,223.11
2022-10-19T00:57:54.059Z,224.64
2022-10-19T00:58:54.396Z,224.95
2022-10-19T00:59:49.669Z,227.60
2022-10-19T01:00:44.948Z,228.87
2022-10-19T01:01:40.119Z,231.12
2022-10-19T01:02:35.307Z,229.51
2022-10-19T01:03:30.201Z,230.96
2022-10-19T01:04:25.284Z,232.93
2022-10-19T01:05:20.363Z,235.10
2022-10-19T01:06:15.485Z,232.76
2022-10-19T01:07:10.557Z,232.10
2022-10-19T01:08:05.981Z,236.97
2022-10-19T01:09:00.786Z,237.65
2022-10-19T01:09:55.943Z,236.80
2022-10-19T01:10:51.017Z,237.14
2022-10-19T01:11:46.064Z,238.00
2022-10-19T01:12:41.307Z,239.21
2022-10-19T01:13:36.271Z,236.62
2022-10-19T01:14:31.468Z,237.14
2022-10-19T01:15:26.761Z,236.97
2022-10-19T01:16:21.978Z,236.11
2022-10-19T01:17:17.030Z,237.14
2022-10-19T01:18:15.006Z,238.34
2022-10-19T01:19:10.098Z,238.86
2022-10-19T01:20:05.127Z,239.04
2022-10-19T01:21:00.180Z,239.74
2022-10-19T01:21:55.235Z,238.52
2022-10-19T01:22:50.278Z,238.52
2022-10-19T01:23:45.289Z,239.74
2022-10-19T01:24:40.805Z,239.04
2022-10-19T01:25:35.390Z,238.69
2022-10-19T01:26:30.562Z,240.09
2022-10-19T01:27:25.460Z,239.39
2022-10-19T01:28:20.557Z,240.62
2022-10-19T01:29:15.597Z,240.62
2022-10-19T01:30:10.686Z,241.15
2022-10-19T01:31:05.738Z,242.75
2022-10-19T01:32:00.816Z,243.65
2022-10-19T01:32:57.619Z,244.56
2022-10-19T01:33:52.788Z,244.20
2022-10-19T01:34:47.823Z,245.29
2022-10-19T01:35:42.902Z,245.84
2022-10-19T01:36:37.977Z,246.21
2022-10-19T01:37:33.429Z,247.70
2022-10-19T01:38:28.065Z,248.26
2022-10-19T01:39:23.150Z,249.02
2022-10-19T01:40:18.316Z,249.39
2022-10-19T01:41:13.521Z,250.15
2022-10-19T01:42:08.577Z,252.27
2022-10-19T01:43:03.632Z,253.44
2022-10-19T01:43:58.692Z,253.24
2022-10-19T01:44:53.701Z,254.03
2022-10-19T01:45:48.790Z,254.03
2022-10-19T01:46:44.524Z,255.01
2022-10-19T01:47:39.702Z,257.82
2022-10-19T01:48:35.558Z,258.84
2022-10-19T01:49:30.717Z,260.27
2022-10-19T01:50:26.088Z,259.66
2022-10-19T01:51:21.841Z,261.52
2022-10-19T01:52:17.072Z,260.69
2022-10-19T01:53:12.215Z,262.15
2022-10-19T01:54:08.661Z,263.62
2022-10-19T01:55:03.983Z,264.68
2022-10-19T01:55:59.689Z,267.93
2022-10-19T01:56:54.854Z,265.33
2022-10-19T01:57:50.007Z,267.05
2022-10-19T01:58:45.883Z,265.76
2022-10-19T01:59:41.143Z,263.62
2022-10-19T02:00:37.034Z,263.41
2022-10-19T02:01:32.116Z,265.33
2022-10-19T02:02:27.581Z,267.49
2022-10-19T02:03:23.396Z,265.33
2022-10-19T02:04:18.629Z,265.54
2022-10-19T02:05:13.957Z,267.05
2022-10-19T02:06:10.263Z,266.40
2022-10-19T02:07:05.488Z,268.58
2022-10-19T02:08:01.287Z,266.62
2022-10-19T02:08:56.511Z,267.71
2022-10-19T02:09:51.968Z,267.93
2022-10-19T02:10:47.632Z,266.84
2022-10-19T02:11:45.167Z,269.02
2022-10-19T02:12:39.681Z,270.58
2022-10-19T02:13:33.946Z,272.83
2022-10-19T02:14:29.363Z,271.47
2022-10-19T02:15:26.002Z,269.91
2022-10-19T02:16:21.351Z,271.25
2022-10-19T02:17:16.580Z,271.92
2022-10-19T02:18:12.902Z,270.13
2022-10-19T02:19:08.176Z,271.02
2022-10-19T02:20:03.939Z,265.97
2022-10-19T02:20:59.078Z,264.90
2022-10-19T02:21:54.331Z,264.90
2022-10-19T02:22:50.121Z,264.68
2022-10-19T02:23:46.170Z,264.47
2022-10-19T02:24:41.210Z,264.47
2022-10-19T02:25:36.529Z,263.83
2022-10-19T02:26:31.937Z,265.11
2022-10-19T02:27:27.605Z,262.36
2022-10-19T02:28:22.915Z,261.94
2022-10-19T02:29:18.139Z,261.94
2022-10-19T02:30:13.347Z,263.41
2022-10-19T02:31:09.836Z,262.15
2022-10-19T02:32:05.044Z,262.15
2022-10-19T02:33:00.289Z,262.99
2022-10-19T02:33:56.071Z,262.78
2022-10-19T02:34:51.315Z,262.15
2022-10-19T02:35:46.535Z,262.15
2022-10-19T02:36:42.852Z,262.15
2022-10-19T02:37:38.125Z,262.99
2022-10-19T02:38:33.915Z,264.05
2022-10-19T02:39:29.451Z,262.36
2022-10-19T02:40:24.577Z,263.20
2022-10-19T02:41:20.358Z,261.94
2022-10-19T02:42:15.607Z,265.33
2022-10-19T02:43:11.370Z,261.94
2022-10-19T02:44:06.600Z,264.26
2022-10-19T02:45:01.989Z,263.41
2022-10-19T02:45:57.907Z,262.36
2022-10-19T02:46:52.997Z,261.31
2022-10-19T02:47:48.218Z,260.48
2022-10-19T02:48:43.400Z,259.45
2022-10-19T02:49:38.669Z,258.63
2022-10-19T02:50:34.031Z,258.43
2022-10-19T02:51:29.737Z,259.45
2022-10-19T02:52:24.699Z,258.23
2022-10-19T02:53:20.484Z,257.82
2022-10-19T02:54:15.714Z,257.42
2022-10-19T02:55:10.949Z,256.81
2022-10-19T02:56:06.184Z,255.01
2022-10-19T02:57:01.199Z,250.73
2022-10-19T02:57:56.256Z,250.73
2022-10-19T02:58:51.368Z,249.58
2022-10-19T02:59:46.449Z,246.95
2022-10-19T03:00:41.629Z,245.48
2022-10-19T03:01:36.584Z,246.58
2022-10-19T03:02:31.559Z,244.93
2022-10-19T03:03:26.653Z,245.66
2022-10-19T03:04:21.772Z,242.57
2022-10-19T03:05:16.882Z,242.93
2022-10-19T03:06:11.983Z,244.93
2022-10-19T03:07:07.097Z,243.83
2022-10-19T03:08:02.238Z,240.97
2022-10-19T03:08:57.225Z,239.74
2022-10-19T03:09:52.330Z,242.93
2022-10-19T03:10:47.415Z,243.11
2022-10-19T03:11:42.414Z,241.68
2022-10-19T03:12:37.505Z,241.86
2022-10-19T03:13:32.594Z,243.29
2022-10-19T03:14:27.694Z,244.38
2022-10-19T03:15:22.799Z,242.93
2022-10-19T03:16:17.894Z,244.02
2022-10-19T03:17:13.086Z,245.11
2022-10-19T03:18:08.430Z,245.11
2022-10-19T03:19:03.586Z,246.58
2022-10-19T03:19:58.928Z,246.40
2022-10-19T03:20:54.060Z,246.95
2022-10-19T03:21:49.311Z,246.77
2022-10-19T03:22:44.526Z,246.95
2022-10-19T03:23:39.768Z,247.33
2022-10-19T03:24:35.001Z,245.48
2022-10-19T03:25:30.240Z,244.20
2022-10-19T03:26:25.900Z,242.75
2022-10-19T03:27:21.114Z,239.04
2022-10-19T03:28:16.480Z,238.86
2022-10-19T03:29:11.874Z,240.26
2022-10-19T03:30:06.825Z,239.91
2022-10-19T03:31:02.086Z,239.21
2022-10-19T03:31:57.343Z,240.09
2022-10-19T03:32:52.577Z,241.32
2022-10-19T03:33:47.815Z,240.09
2022-10-19T03:34:43.144Z,230.48
2022-10-19T03:35:38.527Z,214.08
2022-10-19T03:36:33.642Z,212.42
2022-10-19T03:37:28.863Z,215.35
2022-10-19T03:38:24.225Z,218.07
2022-10-19T03:39:19.441Z,217.49
2022-10-19T03:40:14.650Z,218.21
2022-10-19T03:41:09.926Z,219.23
2022-10-19T03:42:05.307Z,222.65
2022-10-19T03:43:00.518Z,224.48
2022-10-19T03:43:55.805Z,225.41
2022-10-19T03:44:51.000Z,226.34
2022-10-19T03:45:46.230Z,226.65
2022-10-19T03:46:41.460Z,227.76
2022-10-19T03:47:36.903Z,229.35
2022-10-19T03:48:31.918Z,230.31
2022-10-19T03:49:27.158Z,229.51
2022-10-19T03:50:22.500Z,230.96
2022-10-19T03:51:17.661Z,230.96
2022-10-19T03:52:12.867Z,230.96
2022-10-19T03:53:08.112Z,232.60
2022-10-19T03:54:03.200Z,231.94
2022-10-19T03:54:58.274Z,233.26
2022-10-19T03:55:53.387Z,233.59
2022-10-19T03:56:48.457Z,234.43
2022-10-19T03:57:43.696Z,234.60
2022-10-19T03:58:38.849Z,233.76
2022-10-19T03:59:34.088Z,229.67
2022-10-19T04:00:29.902Z,231.29
2022-10-19T04:01:25.077Z,231.45
2022-10-19T04:02:20.065Z,229.03
2022-10-19T04:03:15.176Z,230.80
2022-10-19T04:04:10.308Z,228.71
2022-10-19T04:05:05.371Z,231.45
2022-10-19T04:06:00.545Z,229.83
2022-10-19T04:06:55.456Z,232.27
2022-10-19T04:07:50.633Z,232.93
2022-10-19T04:08:45.683Z,231.29
2022-10-19T04:09:40.786Z,223.87
2022-10-19T04:10:36.007Z,219.09
2022-10-19T04:11:31.353Z,218.65
2022-10-19T04:12:26.592Z,217.92
2022-10-19T04:13:21.853Z,214.93
2022-10-19T04:14:26.727Z,212.83
2022-10-19T04:15:13.355Z,210.78
2022-10-19T04:16:08.187Z,211.87
2022-10-19T04:17:03.014Z,212.97
2022-10-19T04:17:58.179Z,213.53
2022-10-19T04:18:53.426Z,215.49
2022-10-19T04:19:48.686Z,217.49
2022-10-19T04:20:43.931Z,216.77
2022-10-19T04:21:39.145Z,217.63
2022-10-19T04:22:34.448Z,217.35
2022-10-19T04:23:29.661Z,217.63
2022-10-19T04:24:24.908Z,217.35
2022-10-19T04:25:20.143Z,218.07
2022-10-19T04:26:15.336Z,216.77
2022-10-19T04:27:10.721Z,210.24
2022-10-19T04:28:05.826Z,202.33
2022-10-19T04:29:01.128Z,200.36
2022-10-19T04:29:56.369Z,201.84
2022-10-19T04:30:51.788Z,204.10
2022-10-19T04:31:47.015Z,206.41
2022-10-19T04:32:42.314Z,206.54
2022-10-19T04:33:37.582Z,203.72
2022-10-19T04:34:35.223Z,202.46
2022-10-19T04:35:28.052Z,202.46
2022-10-19T04:36:23.292Z,203.59
2022-10-19T04:37:18.662Z,205.24
2022-10-19T04:38:13.875Z,205.63
2022-10-19T04:39:09.111Z,204.86
2022-10-19T04:40:04.320Z,204.48
2022-10-19T04:40:59.676Z,204.35
2022-10-19T04:41:54.821Z,206.15
2022-10-19T04:42:50.060Z,204.86
2022-10-19T04:43:45.370Z,201.34
2022-10-19T04:44:40.572Z,197.58
2022-10-19T04:45:35.915Z,198.18
2022-10-19T04:46:31.175Z,196.99
2022-10-19T04:47:26.566Z,194.77
2022-10-19T04:48:21.774Z,195.23
2022-10-19T04:49:19.476Z,196.63
2022-10-19T04:50:12.308Z,199.02
2022-10-19T04:51:07.688Z,199.38
2022-10-19T04:52:02.771Z,200.85
2022-10-19T04:52:58.002Z,202.71
2022-10-19T04:53:54.485Z,202.84
2022-10-19T04:54:48.519Z,196.40
2022-10-19T04:55:43.858Z,177.34
2022-10-19T04:56:39.094Z,147.03
2022-10-19T04:57:34.621Z,143.86
2022-10-19T04:58:29.486Z,145.36
2022-10-19T04:59:24.436Z,142.02
2022-10-19T05:00:19.584Z,144.23
2022-10-19T05:01:14.593Z,146.77
2022-10-19T05:02:09.536Z,145.62
2022-10-19T05:03:04.644Z,139.06
2022-10-19T05:03:59.766Z,141.06
2022-10-19T05:04:55.106Z,148.60
2022-10-19T05:05:50.232Z,154.23
2022-10-19T05:06:45.242Z,159.08
2022-10-19T05:07:40.369Z,165.88
2022-10-19T05:08:35.443Z,169.42
2022-10-19T05:09:30.606Z,172.21
2022-10-19T05:10:25.603Z,175.47
2022-10-19T05:11:20.684Z,177.72
2022-10-19T05:12:15.762Z,180.02
2022-10-19T05:13:10.883Z,179.43
2022-10-19T05:14:05.950Z,181.39
2022-10-19T05:15:00.936Z,180.60
2022-10-19T05:15:56.035Z,181.19
2022-10-19T05:16:51.252Z,183.78
2022-10-19T05:17:46.504Z,171.15
2022-10-19T05:18:41.730Z,174.92
2022-10-19T05:19:37.283Z,180.99
2022-10-19T05:20:32.393Z,183.78
2022-10-19T05:21:27.613Z,182.38
2022-10-19T05:22:22.908Z,175.10
2022-10-19T05:23:18.171Z,166.21
2022-10-19T05:24:13.391Z,159.08
2022-10-19T05:25:08.634Z,159.99
2022-10-19T05:26:03.857Z,164.09
2022-10-19T05:26:59.133Z,168.73
2022-10-19T05:27:54.434Z,172.93
2022-10-19T05:28:49.702Z,173.83
2022-10-19T05:29:45.169Z,174.74
2022-10-19T05:30:40.335Z,173.65
2022-10-19T05:31:37.009Z,174.19
2022-10-19T05:32:32.419Z,178.29
2022-10-19T05:33:27.654Z,179.24
2022-10-19T05:34:22.944Z,181.98
2022-10-19T05:35:21.545Z,183.18
2022-10-19T05:36:13.352Z,182.58
2022-10-19T05:37:08.403Z,183.18
2022-10-19T05:38:03.450Z,183.58
2022-10-19T05:38:58.472Z,183.99
2022-10-19T05:39:53.532Z,183.99
2022-10-19T05:40:52.881Z,181.98
2022-10-19T05:41:44.711Z,161.23
2022-10-19T05:42:38.779Z,154.66
2022-10-19T05:43:33.784Z,158.63
2022-10-19T05:44:28.940Z,163.28
2022-10-19T05:45:26.174Z,167.88
2022-10-19T05:46:21.171Z,165.22
2022-10-19T05:47:16.253Z,165.55
2022-10-19T05:48:11.291Z,167.88
2022-10-19T05:49:06.407Z,169.42
2022-10-19T05:50:01.384Z,172.39
2022-10-19T05:50:56.466Z,175.84
2022-10-19T05:51:51.907Z,178.67
2022-10-19T05:52:54.253Z,178.48
2022-10-19T05:53:42.726Z,179.24
2022-10-19T05:54:38.126Z,181.58
2022-10-19T05:55:33.500Z,183.58
2022-10-19T05:56:28.987Z,184.19
2022-10-19T05:57:24.246Z,185.01
2022-10-19T05:58:20.966Z,180.60
2022-10-19T05:59:16.384Z,179.63
2022-10-19T06:00:11.785Z,176.77
2022-10-19T06:01:07.054Z,173.47
2022-10-19T06:02:02.685Z,173.65
2022-10-19T06:02:59.208Z,175.66
2022-10-19T06:03:53.107Z,174.92
2022-10-19T06:04:48.155Z,174.37
2022-10-19T06:05:43.279Z,173.65
2022-10-19T06:06:38.333Z,175.29
2022-10-19T06:07:33.720Z,178.48
2022-10-19T06:08:28.366Z,179.43
2022-10-19T06:09:23.342Z,180.21
2022-10-19T06:10:18.476Z,182.58
2022-10-19T06:12:40.343Z,159.84
2022-10-19T06:13:35.593Z,166.38
2022-10-19T06:14:30.960Z,172.57
2022-10-19T06:15:26.363Z,163.12
2022-10-19T06:16:21.793Z,152.96
2022-10-19T06:17:17.187Z,155.52
2022-10-19T06:18:12.595Z,162.01
2022-10-19T06:19:07.987Z,167.88
2022-10-19T06:20:03.411Z,172.04
2022-10-19T06:20:58.980Z,175.66
2022-10-19T06:21:54.393Z,176.40
2022-10-19T06:22:49.807Z,176.40
2022-10-19T06:23:45.199Z,177.53
2022-10-19T06:24:40.559Z,177.90
2022-10-19T06:25:36.121Z,179.05
2022-10-19T06:26:31.383Z,179.82
2022-10-19T06:27:26.841Z,179.05
2022-10-19T06:28:22.274Z,180.21
2022-10-19T06:29:17.687Z,180.02
2022-10-19T06:30:13.172Z,184.39
2022-10-19T06:31:09.312Z,181.39
2022-10-19T06:32:03.863Z,182.78
2022-10-19T06:32:59.363Z,183.99
2022-10-19T06:33:55.668Z,186.89
2022-10-19T06:34:53.046Z,185.01
2022-10-19T06:35:46.674Z,183.38
2022-10-19T06:36:41.003Z,182.38
2022-10-19T06:37:36.475Z,179.63
2022-10-19T06:38:31.786Z,180.60
2022-10-19T06:39:27.199Z,181.78
2022-10-19T06:40:22.666Z,183.99
2022-10-19T06:41:18.019Z,181.98
2022-10-19T06:42:13.630Z,185.42
2022-10-19T06:43:09.052Z,185.62
2022-10-19T06:44:04.545Z,183.99
2022-10-19T06:45:00.006Z,185.42
2022-10-19T06:45:55.450Z,183.38
2022-10-19T06:46:50.930Z,185.20
2022-10-19T06:48:42.100Z,185.10
2022-10-19T06:49:37.418Z,186.04
2022-10-19T06:50:32.841Z,189.92
2022-10-19T06:51:28.291Z,185.20
2022-10-19T06:52:23.760Z,187.64
2022-10-19T06:53:19.200Z,184.89
2022-10-19T06:54:14.769Z,186.79
2022-10-19T06:55:10.114Z,185.41
2022-10-19T06:56:05.578Z,184.39
2022-10-19T06:57:01.270Z,171.68
2022-10-19T06:57:56.585Z,161.86
2022-10-19T06:58:52.014Z,163.28
2022-10-19T06:59:50.165Z,165.06
2022-10-19T07:00:43.999Z,168.22
2022-10-19T07:01:38.484Z,171.15
2022-10-19T07:02:33.786Z,169.93
2022-10-19T07:03:29.315Z,172.21
2022-10-19T07:04:24.662Z,175.47
2022-10-19T07:05:20.194Z,173.11
2022-10-19T07:06:15.754Z,177.15
2022-10-19T07:07:11.282Z,176.77
2022-10-19T07:08:06.705Z,153.94
2022-10-19T07:09:02.177Z,136.22
2022-10-19T07:09:57.499Z,134.04
2022-10-19T07:10:52.962Z,137.91
2022-10-19T07:11:48.385Z,143.61
2022-10-19T07:12:43.880Z,147.16
2022-10-19T07:13:39.372Z,147.94
2022-10-19T07:14:34.842Z,148.46
2022-10-19T07:15:30.466Z,152.68
2022-10-19T07:16:25.808Z,153.80
2022-10-19T07:17:21.301Z,156.10
2022-10-19T07:18:16.785Z,158.18
2022-10-19T07:19:12.246Z,160.15
2022-10-19T07:20:07.703Z,164.41
2022-10-19T07:21:03.410Z,165.71
2022-10-19T07:21:58.880Z,171.68
2022-10-19T07:22:54.369Z,172.21
2022-10-19T07:23:49.949Z,173.65
2022-10-19T07:24:45.290Z,174.01
2022-10-19T07:25:40.822Z,173.65
2022-10-19T07:26:36.421Z,174.92
2022-10-19T07:27:35.384Z,175.84
2022-10-19T07:28:28.401Z,179.43
2022-10-19T07:29:22.980Z,179.82
2022-10-19T07:30:18.499Z,182.38
2022-10-19T07:31:14.126Z,182.98
2022-10-19T07:32:09.609Z,183.78
2022-10-19T07:33:05.099Z,185.52
2022-10-19T07:34:00.734Z,185.41
2022-10-19T07:34:56.275Z,185.41
2022-10-19T07:35:51.763Z,186.79
2022-10-19T07:36:47.291Z,188.72
2022-10-19T07:37:42.792Z,188.72
2022-10-19T07:38:38.273Z,191.92
2022-10-19T07:39:33.688Z,190.47
2022-10-19T07:40:29.328Z,189.81
2022-10-19T07:41:24.845Z,186.66
2022-10-19T07:43:15.945Z,178.29
2022-10-19T07:44:14.816Z,177.34
2022-10-19T07:45:06.875Z,176.21
2022-10-19T07:46:02.273Z,175.66
2022-10-19T07:46:57.790Z,175.47
2022-10-19T07:47:53.203Z,175.84
2022-10-19T07:48:48.680Z,178.48
2022-10-19T07:49:44.110Z,178.10
2022-10-19T07:50:39.486Z,180.02
2022-10-19T07:51:34.972Z,180.60
2022-10-19T07:52:33.024Z,182.78
2022-10-19T07:53:26.895Z,185.21
2022-10-19T07:54:21.225Z,184.79
2022-10-19T07:55:16.607Z,185.83
2022-10-19T07:56:12.101Z,185.73
2022-10-19T07:57:07.636Z,186.45
2022-10-19T07:58:03.128Z,176.40
2022-10-19T07:58:58.615Z,179.82
2022-10-19T07:59:54.245Z,182.78
2022-10-19T08:00:49.773Z,186.04
2022-10-19T08:01:45.330Z,185.94
2022-10-19T08:02:59.910Z,187.85
2022-10-19T08:05:28.393Z,201.46
2022-10-19T08:06:22.834Z,202.21
2022-10-19T08:07:18.303Z,203.46
2022-10-19T08:08:13.784Z,204.73
2022-10-19T08:09:09.364Z,203.72
2022-10-19T08:10:04.971Z,203.34
2022-10-19T08:11:00.327Z,200.48
2022-10-19T08:11:55.821Z,202.09
2022-10-19T08:12:51.316Z,205.12
2022-10-19T08:13:46.826Z,204.99
2022-10-19T08:14:42.515Z,205.37
2022-10-19T08:15:37.996Z,206.54
2022-10-19T08:16:33.511Z,207.85
2022-10-19T08:17:29.360Z,203.34
2022-10-19T08:18:24.772Z,202.21
2022-10-19T08:19:20.268Z,202.96
2022-10-19T08:20:15.976Z,203.21
2022-10-19T08:21:11.333Z,202.33
2022-10-19T08:22:06.791Z,205.76
2022-10-19T08:23:02.459Z,207.32
2022-10-19T08:23:57.932Z,209.30
2022-10-19T08:24:53.458Z,212.97
2022-10-19T08:25:48.899Z,215.49
2022-10-19T08:26:44.375Z,214.08
2022-10-19T08:27:39.867Z,212.42
2022-10-19T08:28:35.380Z,209.44
2022-10-19T08:29:31.699Z,209.04
2022-10-19T08:30:26.488Z,210.24
2022-10-19T08:31:21.999Z,214.93
2022-10-19T08:32:17.532Z,215.63
2022-10-19T08:33:13.193Z,215.49
2022-10-19T08:34:08.704Z,214.08
2022-10-19T08:36:29.864Z,190.58
2022-10-19T08:37:40.165Z,197.46
2022-10-19T08:38:20.919Z,203.46
2022-10-19T08:39:15.237Z,204.22
2022-10-19T08:40:10.709Z,208.24
2022-10-19T08:41:06.198Z,209.04
2022-10-19T08:42:01.866Z,213.39
2022-10-19T08:42:57.332Z,215.07
2022-10-19T08:43:52.816Z,216.49
2022-10-19T08:44:48.253Z,216.63
2022-10-19T08:45:43.653Z,216.49
2022-10-19T08:46:39.131Z,216.77
2022-10-19T08:47:34.687Z,212.97
2022-10-19T08:48:30.054Z,211.05
2022-10-19T08:49:25.562Z,212.15
2022-10-19T08:50:21.077Z,213.94
2022-10-19T08:51:16.614Z,214.08
2022-10-19T08:52:12.035Z,216.77
2022-10-19T08:53:07.424Z,215.77
2022-10-19T08:54:02.934Z,203.59
2022-10-19T08:54:58.357Z,170.63
2022-10-19T08:55:53.779Z,160.30
2022-10-19T08:56:51.691Z,146.77
2022-10-19T08:57:44.568Z,166.38
2022-10-19T08:58:39.975Z,162.17
2022-10-19T08:59:35.484Z,142.38
2022-10-19T09:00:30.780Z,140.94
2022-10-19T09:01:26.193Z,153.66
2022-10-19T09:02:21.627Z,171.15
2022-10-19T09:03:23.057Z,181.39
2022-10-19T09:04:13.413Z,169.76
2022-10-19T09:05:07.982Z,178.29
2022-10-19T09:06:03.460Z,173.47
2022-10-19T09:06:58.971Z,177.15
2022-10-19T09:07:54.349Z,172.39
2022-10-19T09:08:50.067Z,173.11
2022-10-19T09:10:41.033Z,187.10
2022-10-19T09:11:36.542Z,192.26
2022-10-19T09:12:32.201Z,196.28
2022-10-19T09:13:36.459Z,182.98
2022-10-19T09:14:23.961Z,177.72
2022-10-19T09:15:18.264Z,173.29
2022-10-19T09:16:13.767Z,177.34
2022-10-19T09:17:09.317Z,184.60
2022-10-19T09:18:04.979Z,187.96
2022-10-19T09:19:00.485Z,191.03
2022-10-19T09:19:56.136Z,191.25
2022-10-19T09:20:51.641Z,193.05
2022-10-19T09:21:47.826Z,194.65
2022-10-19T09:22:42.649Z,195.12
2022-10-19T09:23:38.137Z,200.24
2022-10-19T09:24:33.655Z,203.09
2022-10-19T09:25:29.336Z,197.70
2022-10-19T09:26:24.604Z,195.46
2022-10-19T09:27:20.012Z,189.04
2022-10-19T09:28:15.504Z,181.78
2022-10-19T09:29:11.045Z,187.85
2022-10-19T09:30:06.525Z,195.23
2022-10-19T09:31:02.002Z,195.46
2022-10-19T09:32:52.872Z,199.63
2022-10-19T09:33:48.366Z,205.50
2022-10-19T09:34:43.851Z,207.58
2022-10-19T09:35:39.354Z,209.30
2022-10-19T09:36:50.077Z,211.60
2022-10-19T09:37:31.362Z,217.06
2022-10-19T09:38:25.676Z,218.94
2022-10-19T09:39:22.614Z,223.72
2022-10-19T09:40:16.615Z,211.19
2022-10-19T09:41:11.892Z,214.36
2022-10-19T09:42:07.376Z,213.80
2022-10-19T09:43:02.877Z,213.53
2022-10-19T09:43:58.276Z,207.85
2022-10-19T09:44:53.864Z,212.83
2022-10-19T09:45:49.226Z,217.92
2022-10-19T09:47:40.027Z,209.71
2022-10-19T09:48:35.560Z,202.84
2022-10-19T09:49:31.077Z,203.34
2022-10-19T09:50:26.626Z,191.70
2022-10-19T09:51:22.015Z,180.40
2022-10-19T09:52:17.513Z,164.90
2022-10-19T09:53:12.997Z,156.84
2022-10-19T09:54:08.649Z,156.40
2022-10-19T09:55:04.244Z,157.88
2022-10-19T09:55:59.497Z,161.70
2022-10-19T09:56:54.933Z,167.54
2022-10-19T09:57:50.428Z,173.47
2022-10-19T09:58:46.036Z,178.67
2022-10-19T09:59:41.528Z,182.78
2022-10-19T10:00:37.201Z,186.15
2022-10-19T10:01:41.758Z,189.04
2022-10-19T10:02:29.464Z,192.71
2022-10-19T10:03:23.715Z,192.37
2022-10-19T10:04:19.299Z,188.18
2022-10-19T10:05:14.802Z,176.59
2022-10-19T10:06:10.199Z,171.68
2022-10-19T10:07:05.737Z,173.65
2022-10-19T10:08:01.237Z,168.39
2022-10-19T10:08:56.642Z,161.39
2022-10-19T10:09:52.181Z,156.99
2022-10-19T10:10:47.680Z,153.24
2022-10-19T10:11:43.258Z,146.90
2022-10-19T10:12:38.765Z,148.07
2022-10-19T10:13:34.262Z,152.54
2022-10-19T10:14:29.758Z,156.10
2022-10-19T10:15:25.298Z,161.39
2022-10-19T10:16:20.842Z,160.46
2022-10-19T10:17:16.333Z,156.25
2022-10-19T10:18:11.822Z,152.54
2022-10-19T10:19:07.306Z,150.07
2022-10-19T10:20:02.849Z,150.07
2022-10-19T10:20:58.504Z,147.03
2022-10-19T10:21:53.996Z,149.53
2022-10-19T10:22:49.479Z,151.71
2022-10-19T10:23:45.031Z,153.66
2022-10-19T10:24:40.505Z,155.09
2022-10-19T10:25:36.010Z,158.03
2022-10-19T10:26:31.746Z,157.58
2022-10-19T10:27:27.411Z,158.03
2022-10-19T10:28:22.757Z,157.28
2022-10-19T10:29:18.299Z,151.71
2022-10-19T10:30:13.807Z,149.66
2022-10-19T10:31:09.285Z,147.03
2022-10-19T10:32:04.924Z,143.98
2022-10-19T10:33:08.206Z,142.63
2022-10-19T10:33:56.922Z,142.63
2022-10-19T10:34:54.901Z,142.02
2022-10-19T10:35:47.706Z,142.75
2022-10-19T10:36:42.279Z,141.42
2022-10-19T10:37:37.774Z,144.98
2022-10-19T10:38:33.257Z,150.88
2022-10-19T10:39:28.796Z,155.52
2022-10-19T10:40:24.249Z,158.32
2022-10-19T10:41:19.640Z,161.39
2022-10-19T10:42:15.290Z,160.46
2022-10-19T10:43:10.944Z,163.12
2022-10-19T10:44:06.303Z,165.55
2022-10-19T10:45:01.824Z,161.39
2022-10-19T10:45:57.317Z,160.15
2022-10-19T10:46:52.659Z,164.25
2022-10-19T10:47:48.186Z,166.04
2022-10-19T10:48:43.808Z,167.88
2022-10-19T10:49:39.303Z,172.04
2022-10-19T10:50:34.742Z,175.84
2022-10-19T10:51:30.216Z,178.10
2022-10-19T10:52:25.732Z,178.67
2022-10-19T10:53:21.387Z,178.48
2022-10-19T10:54:16.894Z,186.24
2022-10-19T10:55:12.344Z,189.70
2022-10-19T10:56:07.823Z,193.05
2022-10-19T10:57:06.326Z,195.12
2022-10-19T10:57:58.867Z,193.16
2022-10-19T10:58:54.255Z,188.29
2022-10-19T10:59:49.684Z,191.81
2022-10-19T11:00:45.144Z,190.36
2022-10-19T11:01:40.636Z,190.25
2022-10-19T11:02:36.265Z,188.72
2022-10-19T11:03:31.692Z,185.10
2022-10-19T11:04:27.104Z,185.62
2022-10-19T11:05:22.581Z,190.14
2022-10-19T11:06:17.951Z,195.35
2022-10-19T11:07:13.488Z,191.58
2022-10-19T11:08:08.798Z,185.94
2022-10-19T11:09:04.517Z,185.62
2022-10-19T11:09:59.968Z,184.80
2022-10-19T11:10:55.353Z,186.04
2022-10-19T11:11:50.790Z,186.89
2022-10-19T11:12:46.274Z,188.07
2022-10-19T11:13:41.712Z,189.81
2022-10-19T11:14:37.022Z,190.47
2022-10-19T11:15:32.503Z,189.04
2022-10-19T11:16:27.895Z,188.07
2022-10-19T11:17:23.378Z,188.07
2022-10-19T11:18:18.938Z,186.47
2022-10-19T11:20:09.928Z,179.24
2022-10-19T11:21:05.419Z,180.80
2022-10-19T11:22:00.868Z,184.80
2022-10-19T11:22:56.348Z,189.37
2022-10-19T11:23:51.976Z,198.42
2022-10-19T11:24:48.724Z,205.37
2022-10-19T11:25:42.805Z,211.60
2022-10-19T11:26:38.424Z,215.91
2022-10-19T11:27:34.254Z,214.22
2022-10-19T11:28:29.385Z,216.63
2022-10-19T11:29:25.032Z,214.64
2022-10-19T11:30:20.560Z,207.32
2022-10-19T11:31:15.997Z,201.96
2022-10-19T11:32:11.590Z,197.58
2022-10-19T11:33:07.078Z,188.61
2022-10-19T11:34:02.693Z,187.43
2022-10-19T11:34:58.075Z,186.47
2022-10-19T11:35:53.423Z,186.68
2022-10-19T11:36:48.883Z,180.21
2022-10-19T11:37:49.872Z,174.01
2022-10-19T11:38:40.786Z,171.68
2022-10-19T11:39:35.208Z,165.06
2022-10-19T11:40:30.816Z,161.70
2022-10-19T11:41:26.281Z,153.66